Time;durP1;ratioP1;P1;durP2;ratioP2;P2;SDS_P1;SDS_P2;PMS_P1;PMS_P2;Temp;Humidity;BMP_temperature;BMP_pressure;BME280_temperature;BME280_humidity;BME280_pressure;Samples;Min_cycle;Max_cycle;Signal;HPM_P1;HPM_P2
2024/01/31 00:01:01;;;;;;;19.70;15.20;;;;;;;;;;10249663;28;20079;-62
2024/01/31 00:06:01;;;;;;;118.20;67.38;;;;;;;;;;10251596;28;20058;-63
2024/01/31 00:10:59;;;;;;;19.10;15.05;;;;;;;;;;10255692;28;20486;-63
2024/01/31 00:15:57;;;;;;;30.95;23.08;;;;;;;;;;10258722;28;20522;-62
2024/01/31 00:20:55;;;;;;;19.90;14.77;;;;;;;;;;10258196;28;20072;-62
2024/01/31 00:25:55;;;;;;;31.02;23.80;;;;;;;;;;10258601;28;20064;-61
2024/01/31 00:30:53;;;;;;;14.40;10.88;;;;;;;;;;10259043;28;20064;-62
2024/01/31 00:35:52;;;;;;;47.30;29.60;;;;;;;;;;10258893;28;20064;-63
2024/01/31 00:40:50;;;;;;;27.95;19.90;;;;;;;;;;10260450;28;20072;-62
2024/01/31 00:45:49;;;;;;;58.88;33.60;;;;;;;;;;10261652;28;20152;-62
2024/01/31 00:50:48;;;;;;;19.05;15.50;;;;;;;;;;10259900;28;20075;-62
2024/01/31 00:55:46;;;;;;;38.20;28.85;;;;;;;;;;10259030;28;20069;-62
2024/01/31 01:00:44;;;;;;;26.83;19.75;;;;;;;;;;10259572;28;20081;-63
2024/01/31 01:05:44;;;;;;;13.82;11.40;;;;;;;;;;10257007;28;20077;-62
2024/01/31 01:10:42;;;;;;;15.43;11.70;;;;;;;;;;10256180;28;20068;-61
2024/01/31 01:15:40;;;;;;;12.63;11.20;;;;;;;;;;10255771;28;20072;-62
2024/01/31 01:20:39;;;;;;;15.70;12.23;;;;;;;;;;10253846;28;20569;-62
2024/01/31 01:25:38;;;;;;;13.85;11.55;;;;;;;;;;10254338;28;20080;-63
2024/01/31 01:30:37;;;;;;;13.10;11.48;;;;;;;;;;10254606;28;20498;-63
2024/01/31 01:35:35;;;;;;;14.70;11.43;;;;;;;;;;10255571;28;20521;-62
2024/01/31 01:40:33;;;;;;;12.13;10.50;;;;;;;;;;10255597;28;20091;-62
2024/01/31 01:45:33;;;;;;;12.65;10.05;;;;;;;;;;10258012;28;20072;-63
2024/01/31 01:50:31;;;;;;;11.85;10.23;;;;;;;;;;10255842;28;20065;-62
2024/01/31 01:55:30;;;;;;;11.70;9.52;;;;;;;;;;10255228;28;20514;-62
2024/01/31 02:00:31;;;;;;;15.80;11.38;;;;;;;;;;10254032;28;20081;-62
2024/01/31 02:05:31;;;;;;;12.88;10.98;;;;;;;;;;10254605;28;20076;-62
2024/01/31 02:10:30;;;;;;;16.42;12.90;;;;;;;;;;10256750;28;20073;-63
2024/01/31 02:15:28;;;;;;;13.27;11.50;;;;;;;;;;10254660;28;20064;-63
2024/01/31 02:20:27;;;;;;;14.90;11.18;;;;;;;;;;10248564;28;20069;-62
2024/01/31 02:25:27;;;;;;;13.13;11.77;;;;;;;;;;10248075;28;20069;-62
2024/01/31 02:30:25;;;;;;;13.38;11.18;;;;;;;;;;10254113;28;20068;-62
2024/01/31 02:35:23;;;;;;;15.07;11.07;;;;;;;;;;10258685;28;20077;-62
2024/01/31 02:40:22;;;;;;;12.85;10.80;;;;;;;;;;10253112;28;20103;-62
2024/01/31 02:45:22;;;;;;;15.10;11.63;;;;;;;;;;10252859;28;20073;-62
2024/01/31 02:50:20;;;;;;;12.77;10.95;;;;;;;;;;10253379;28;20088;-62
2024/01/31 02:55:21;;;;;;;13.48;11.10;;;;;;;;;;10255199;28;20073;-62
2024/01/31 03:00:19;;;;;;;13.25;11.85;;;;;;;;;;10253486;28;20075;-61
2024/01/31 03:05:19;;;;;;;12.95;11.40;;;;;;;;;;10254511;28;20068;-63
2024/01/31 03:10:17;;;;;;;16.17;14.43;;;;;;;;;;10254409;28;20065;-63
2024/01/31 03:15:15;;;;;;;15.23;13.52;;;;;;;;;;10260795;28;20057;-62
2024/01/31 03:20:13;;;;;;;17.00;13.07;;;;;;;;;;10255420;28;20534;-61
2024/01/31 03:25:13;;;;;;;15.77;12.70;;;;;;;;;;10251561;28;20065;-62
2024/01/31 03:30:12;;;;;;;12.50;11.05;;;;;;;;;;10250667;28;20076;-63
2024/01/31 03:35:10;;;;;;;11.43;9.90;;;;;;;;;;10254152;28;20064;-62
2024/01/31 03:40:09;;;;;;;12.85;11.45;;;;;;;;;;10250473;28;20076;-61
2024/01/31 03:45:09;;;;;;;15.18;11.15;;;;;;;;;;10250175;28;20069;-62
2024/01/31 03:50:08;;;;;;;12.43;11.10;;;;;;;;;;10251972;28;20522;-61
2024/01/31 03:55:07;;;;;;;13.68;11.00;;;;;;;;;;10255064;28;20076;-62
2024/01/31 04:00:08;;;;;;;13.48;11.27;;;;;;;;;;10249715;28;20081;-61
2024/01/31 04:05:11;;;;;;;16.00;12.23;;;;;;;;;;10251018;28;20080;-62
2024/01/31 04:10:10;;;;;;;11.57;10.15;;;;;;;;;;10250885;28;20073;-63
2024/01/31 04:15:09;;;;;;;16.35;14.27;;;;;;;;;;10251581;28;20073;-62
2024/01/31 04:20:07;;;;;;;14.18;11.20;;;;;;;;;;10250355;28;20080;-62
2024/01/31 04:25:07;;;;;;;15.40;12.07;;;;;;;;;;10254086;28;20080;-62
2024/01/31 04:30:08;;;;;;;14.98;12.73;;;;;;;;;;10250858;28;20072;-61
2024/01/31 04:35:08;;;;;;;15.38;12.45;;;;;;;;;;10252132;28;20577;-61
2024/01/31 04:40:09;;;;;;;13.50;12.05;;;;;;;;;;10252324;28;20087;-61
2024/01/31 04:45:08;;;;;;;14.50;11.25;;;;;;;;;;10251836;28;20072;-61
2024/01/31 04:50:07;;;;;;;17.15;14.55;;;;;;;;;;10250764;28;20581;-61
2024/01/31 04:55:05;;;;;;;14.50;11.45;;;;;;;;;;10255877;28;20084;-63
2024/01/31 05:00:06;;;;;;;16.38;13.30;;;;;;;;;;10256791;28;20069;-62
2024/01/31 05:05:05;;;;;;;13.77;11.63;;;;;;;;;;10263104;28;20080;-61
2024/01/31 05:10:04;;;;;;;16.42;14.60;;;;;;;;;;10258593;28;20068;-61
2024/01/31 05:15:02;;;;;;;128.82;75.45;;;;;;;;;;10252166;28;20068;-60
2024/01/31 05:20:02;;;;;;;164.43;103.20;;;;;;;;;;10256264;28;20111;-62
2024/01/31 05:25:01;;;;;;;218.57;120.85;;;;;;;;;;10255690;28;20068;-62
2024/01/31 05:29:59;;;;;;;287.50;142.52;;;;;;;;;;10258998;28;20092;-62
2024/01/31 05:34:57;;;;;;;252.45;123.72;;;;;;;;;;10253842;28;20072;-61
2024/01/31 05:39:57;;;;;;;175.85;93.88;;;;;;;;;;10254657;28;20080;-61
2024/01/31 05:44:56;;;;;;;179.95;97.20;;;;;;;;;;10251574;28;20088;-61
2024/01/31 05:49:54;;;;;;;196.30;97.15;;;;;;;;;;10253748;28;20068;-63
2024/01/31 05:54:52;;;;;;;200.82;106.53;;;;;;;;;;10253410;28;20605;-62
2024/01/31 05:59:52;;;;;;;91.50;56.03;;;;;;;;;;10258872;28;20068;-62
2024/01/31 06:04:50;;;;;;;48.72;33.60;;;;;;;;;;10265722;28;21034;-62
2024/01/31 06:09:49;;;;;;;84.07;51.80;;;;;;;;;;10259112;28;20471;-62
2024/01/31 06:14:47;;;;;;;73.70;43.53;;;;;;;;;;10250498;28;20072;-62
2024/01/31 06:19:47;;;;;;;176.63;88.28;;;;;;;;;;10248694;28;20082;-62
2024/01/31 06:24:46;;;;;;;134.65;73.57;;;;;;;;;;10248130;28;20060;-60
2024/01/31 06:29:44;;;;;;;141.80;78.03;;;;;;;;;;10255265;28;20068;-63
2024/01/31 06:34:42;;;;;;;137.85;69.43;;;;;;;;;;10254022;28;20077;-60
2024/01/31 06:39:42;;;;;;;88.47;53.42;;;;;;;;;;10253249;28;20087;-62
2024/01/31 06:44:40;;;;;;;57.70;37.92;;;;;;;;;;10252543;28;20084;-62
2024/01/31 06:49:39;;;;;;;67.40;41.13;;;;;;;;;;10253877;28;20080;-62
2024/01/31 06:54:37;;;;;;;32.75;22.75;;;;;;;;;;10254187;28;20076;-62
2024/01/31 06:59:37;;;;;;;27.33;20.25;;;;;;;;;;10252846;28;20072;-62
2024/01/31 07:04:35;;;;;;;26.67;19.77;;;;;;;;;;10253967;28;20076;-63
2024/01/31 07:09:34;;;;;;;19.50;14.82;;;;;;;;;;10252819;28;20064;-62
2024/01/31 07:14:32;;;;;;;19.17;13.98;;;;;;;;;;10251048;28;20486;-62
2024/01/31 07:19:32;;;;;;;16.58;14.80;;;;;;;;;;10254494;28;20924;-61
2024/01/31 07:24:32;;;;;;;21.42;19.05;;;;;;;;;;10249409;28;20077;-61
2024/01/31 07:29:30;;;;;;;16.00;13.07;;;;;;;;;;10255459;28;20068;-62
2024/01/31 07:34:29;;;;;;;14.88;13.20;;;;;;;;;;10252471;28;20084;-62
2024/01/31 07:39:29;;;;;;;16.58;14.88;;;;;;;;;;10252073;28;20083;-61
2024/01/31 07:44:27;;;;;;;18.02;13.85;;;;;;;;;;10251249;28;20484;-62
2024/01/31 07:49:29;;;;;;;13.05;10.85;;;;;;;;;;10251485;28;20077;-62
2024/01/31 07:54:29;;;;;;;14.15;12.07;;;;;;;;;;10250704;28;20510;-62
2024/01/31 07:59:27;;;;;;;16.65;13.63;;;;;;;;;;10253996;28;20073;-61
2024/01/31 08:04:25;;;;;;;15.95;13.48;;;;;;;;;;10251486;28;20088;-62
2024/01/31 08:09:24;;;;;;;14.43;11.55;;;;;;;;;;10251946;28;20079;-62
2024/01/31 08:14:23;;;;;;;15.85;12.57;;;;;;;;;;10255573;28;20073;-61
2024/01/31 08:19:21;;;;;;;19.58;15.23;;;;;;;;;;10251716;28;21341;-61
2024/01/31 08:24:20;;;;;;;23.05;13.77;;;;;;;;;;10251932;28;20076;-61
2024/01/31 08:29:19;;;;;;;40.15;19.08;;;;;;;;;;10253007;28;20122;-62
2024/01/31 08:34:26;;;;;;;19.52;13.20;;;;;;;;;;10254449;28;20511;-61
2024/01/31 08:39:30;;;;;;;15.65;12.65;;;;;;;;;;10260776;28;20065;-61
2024/01/31 08:44:28;;;;;;;13.05;11.70;;;;;;;;;;10257521;28;20103;-61
2024/01/31 08:49:28;;;;;;;21.48;15.32;;;;;;;;;;10260197;28;20553;-62
2024/01/31 08:54:27;;;;;;;15.18;12.13;;;;;;;;;;10261828;28;20072;-61
2024/01/31 08:59:25;;;;;;;19.50;15.45;;;;;;;;;;10262072;28;20060;-62
2024/01/31 09:04:23;;;;;;;17.75;14.63;;;;;;;;;;10261324;28;20522;-62
2024/01/31 09:09:23;;;;;;;36.53;22.17;;;;;;;;;;10258787;28;20077;-62
2024/01/31 09:14:21;;;;;;;21.90;15.85;;;;;;;;;;10260130;28;20091;-62
2024/01/31 09:19:19;;;;;;;18.38;14.48;;;;;;;;;;10256458;28;20137;-62
2024/01/31 09:24:18;;;;;;;25.25;17.52;;;;;;;;;;10258330;28;20081;-63
2024/01/31 09:29:17;;;;;;;20.25;16.60;;;;;;;;;;10259692;28;20072;-62
2024/01/31 09:34:16;;;;;;;21.45;16.38;;;;;;;;;;10253832;28;20080;-61
2024/01/31 09:39:14;;;;;;;29.13;16.20;;;;;;;;;;10253814;28;20080;-62
2024/01/31 09:44:13;;;;;;;18.33;14.30;;;;;;;;;;10258276;28;20144;-61
2024/01/31 09:49:12;;;;;;;14.65;13.05;;;;;;;;;;10252944;28;20091;-62
2024/01/31 09:54:11;;;;;;;25.33;15.40;;;;;;;;;;10254285;28;20526;-62
2024/01/31 09:59:10;;;;;;;14.43;12.52;;;;;;;;;;10252611;28;20064;-62
2024/01/31 10:04:08;;;;;;;20.98;13.75;;;;;;;;;;10253546;28;20083;-62
2024/01/31 10:09:08;;;;;;;17.73;14.63;;;;;;;;;;10258137;28;20076;-63
2024/01/31 10:14:06;;;;;;;18.95;14.50;;;;;;;;;;10259658;28;20069;-62
2024/01/31 10:19:05;;;;;;;36.83;22.00;;;;;;;;;;10256551;28;20589;-61
2024/01/31 10:24:04;;;;;;;18.60;14.43;;;;;;;;;;10253793;28;20096;-64
2024/01/31 10:29:05;;;;;;;18.23;14.25;;;;;;;;;;10252442;28;20071;-63
2024/01/31 10:34:08;;;;;;;16.42;13.85;;;;;;;;;;10256446;28;20073;-62
2024/01/31 10:39:09;;;;;;;33.70;19.15;;;;;;;;;;10249427;28;20064;-62
2024/01/31 10:44:10;;;;;;;40.47;23.60;;;;;;;;;;10249865;28;20073;-61
2024/01/31 10:49:09;;;;;;;24.70;17.05;;;;;;;;;;10247981;28;20091;-62
2024/01/31 10:54:08;;;;;;;15.23;11.77;;;;;;;;;;10254298;28;20499;-62
2024/01/31 10:59:07;;;;;;;21.10;15.48;;;;;;;;;;10254731;28;20064;-61
2024/01/31 11:04:09;;;;;;;15.02;12.50;;;;;;;;;;10252681;28;20095;-62
2024/01/31 11:09:16;;;;;;;20.60;14.90;;;;;;;;;;10252528;28;20525;-61
2024/01/31 11:14:14;;;;;;;23.75;14.07;;;;;;;;;;10251179;28;20060;-61
2024/01/31 11:19:18;;;;;;;18.38;15.43;;;;;;;;;;10254026;28;20514;-61
2024/01/31 11:24:17;;;;;;;13.97;12.43;;;;;;;;;;10252708;28;20080;-62
2024/01/31 11:29:16;;;;;;;14.63;12.88;;;;;;;;;;10252687;28;20076;-62
2024/01/31 11:34:14;;;;;;;18.02;14.35;;;;;;;;;;10251410;28;20091;-62
2024/01/31 11:39:14;;;;;;;19.13;16.15;;;;;;;;;;10256970;28;20529;-62
2024/01/31 11:44:13;;;;;;;15.15;12.10;;;;;;;;;;10253298;28;20775;-62
2024/01/31 11:49:12;;;;;;;18.30;15.13;;;;;;;;;;10251559;28;20068;-62
2024/01/31 11:54:10;;;;;;;28.80;22.77;;;;;;;;;;10253266;28;20073;-62
2024/01/31 11:59:10;;;;;;;21.20;15.98;;;;;;;;;;10254175;28;20069;-62
2024/01/31 12:04:08;;;;;;;20.85;16.30;;;;;;;;;;10250380;28;20088;-62
2024/01/31 12:09:07;;;;;;;20.13;16.70;;;;;;;;;;10256741;28;20524;-62
2024/01/31 12:14:05;;;;;;;42.33;32.95;;;;;;;;;;10257406;28;20474;-62
2024/01/31 12:19:05;;;;;;;16.92;14.23;;;;;;;;;;10259279;28;20084;-62
2024/01/31 12:24:03;;;;;;;33.50;24.10;;;;;;;;;;10259689;28;20076;-62
2024/01/31 12:29:03;;;;;;;21.30;16.60;;;;;;;;;;10258934;28;20084;-61
2024/01/31 12:34:02;;;;;;;65.18;37.88;;;;;;;;;;10259264;28;20086;-63
2024/01/31 12:39:01;;;;;;;14.48;11.48;;;;;;;;;;10258003;28;20063;-62
2024/01/31 12:44:00;;;;;;;22.67;16.05;;;;;;;;;;10260446;28;20085;-62
2024/01/31 12:48:59;;;;;;;138.65;69.22;;;;;;;;;;10258897;28;20065;-62
2024/01/31 12:53:57;;;;;;;55.28;34.92;;;;;;;;;;10255911;28;20061;-62
2024/01/31 12:58:57;;;;;;;21.13;15.25;;;;;;;;;;10259281;28;20061;-62
2024/01/31 13:03:57;;;;;;;16.95;12.00;;;;;;;;;;10255937;28;20549;-63
2024/01/31 13:08:56;;;;;;;140.75;75.15;;;;;;;;;;10256697;28;20081;-62
2024/01/31 13:13:54;;;;;;;22.65;16.25;;;;;;;;;;10254771;28;20076;-62
2024/01/31 13:18:54;;;;;;;28.77;18.83;;;;;;;;;;10263419;28;20467;-62
2024/01/31 13:23:55;;;;;;;34.70;22.33;;;;;;;;;;10260512;28;20068;-62
2024/01/31 13:28:55;;;;;;;44.40;26.02;;;;;;;;;;10253554;28;20065;-62
2024/01/31 13:33:55;;;;;;;22.25;15.18;;;;;;;;;;10258813;28;20065;-63
2024/01/31 13:38:53;;;;;;;38.33;24.48;;;;;;;;;;10255260;28;20071;-62
2024/01/31 13:43:52;;;;;;;56.20;34.03;;;;;;;;;;10255815;28;20104;-61
2024/01/31 13:48:50;;;;;;;24.83;18.33;;;;;;;;;;10257600;28;20076;-62
2024/01/31 13:53:50;;;;;;;15.32;12.32;;;;;;;;;;10256962;28;20529;-63
2024/01/31 13:58:48;;;;;;;32.58;22.33;;;;;;;;;;10259762;28;20083;-62
2024/01/31 14:03:47;;;;;;;62.70;36.08;;;;;;;;;;10256432;28;20085;-62
2024/01/31 14:08:45;;;;;;;16.80;14.10;;;;;;;;;;10257421;28;20068;-60
2024/01/31 14:13:44;;;;;;;36.78;24.38;;;;;;;;;;10261468;28;20092;-62
2024/01/31 14:18:43;;;;;;;26.63;19.27;;;;;;;;;;10255046;28;20534;-61
2024/01/31 14:23:41;;;;;;;27.42;23.67;;;;;;;;;;10255786;28;20084;-62
2024/01/31 14:28:41;;;;;;;30.40;21.98;;;;;;;;;;10255314;28;20084;-62
2024/01/31 14:33:41;;;;;;;40.80;34.08;;;;;;;;;;10254717;28;20084;-62
2024/01/31 14:38:44;;;;;;;43.63;39.47;;;;;;;;;;10254515;28;20072;-62
2024/01/31 14:43:42;;;;;;;49.17;33.75;;;;;;;;;;10256634;28;20088;-62
2024/01/31 14:48:42;;;;;;;38.47;30.60;;;;;;;;;;10254954;28;20069;-62
2024/01/31 14:53:40;;;;;;;50.10;39.20;;;;;;;;;;10253439;28;20060;-62
2024/01/31 14:58:39;;;;;;;44.97;33.95;;;;;;;;;;10254484;28;20525;-62
2024/01/31 15:03:37;;;;;;;83.15;63.33;;;;;;;;;;10256551;28;20518;-63
2024/01/31 15:08:38;;;;;;;59.17;41.47;;;;;;;;;;10250766;28;20084;-62
2024/01/31 15:13:36;;;;;;;57.00;41.55;;;;;;;;;;10251624;28;20068;-62
2024/01/31 15:18:34;;;;;;;50.15;34.88;;;;;;;;;;10247975;28;20523;-61
2024/01/31 15:23:33;;;;;;;64.47;44.08;;;;;;;;;;10251252;28;20069;-62
2024/01/31 15:28:33;;;;;;;70.05;45.72;;;;;;;;;;10251228;28;20072;-61
2024/01/31 15:33:31;;;;;;;67.18;44.70;;;;;;;;;;10252184;28;20083;-62
2024/01/31 15:38:30;;;;;;;61.78;37.58;;;;;;;;;;10251673;28;20081;-61
2024/01/31 15:43:28;;;;;;;40.60;28.40;;;;;;;;;;10256106;28;20057;-62
2024/01/31 15:48:28;;;;;;;31.60;25.13;;;;;;;;;;10255684;28;20079;-62
2024/01/31 15:53:26;;;;;;;46.72;33.65;;;;;;;;;;10248444;28;20529;-62
2024/01/31 15:58:24;;;;;;;62.67;48.47;;;;;;;;;;10249385;28;20069;-61
2024/01/31 16:03:24;;;;;;;52.78;39.70;;;;;;;;;;10253946;28;20075;-61
2024/01/31 16:08:24;;;;;;;258.20;165.40;;;;;;;;;;10250777;28;20076;-63
2024/01/31 16:13:22;;;;;;;266.77;158.90;;;;;;;;;;10255597;28;20077;-62
2024/01/31 16:18:20;;;;;;;183.75;108.07;;;;;;;;;;10256339;28;20079;-63
2024/01/31 16:23:22;;;;;;;119.03;81.65;;;;;;;;;;10253514;28;20080;-62
2024/01/31 16:28:21;;;;;;;58.20;41.88;;;;;;;;;;10252575;28;20088;-63
2024/01/31 16:33:20;;;;;;;69.55;52.15;;;;;;;;;;10251243;28;20065;-63
2024/01/31 16:38:19;;;;;;;47.30;32.47;;;;;;;;;;10251989;28;20525;-63
2024/01/31 16:43:17;;;;;;;55.78;38.03;;;;;;;;;;10254956;28;20076;-63
2024/01/31 16:48:18;;;;;;;41.55;28.20;;;;;;;;;;10252446;28;20072;-63
2024/01/31 16:53:17;;;;;;;29.92;21.92;;;;;;;;;;10262285;28;20072;-62
2024/01/31 16:58:16;;;;;;;33.35;21.73;;;;;;;;;;10264894;28;20523;-62
2024/01/31 17:03:17;;;;;;;29.55;20.98;;;;;;;;;;10258518;28;20076;-63
2024/01/31 17:08:17;;;;;;;30.25;19.67;;;;;;;;;;10259753;28;20073;-63
2024/01/31 17:13:15;;;;;;;37.85;24.00;;;;;;;;;;10258976;28;20080;-63
2024/01/31 17:18:14;;;;;;;48.53;28.98;;;;;;;;;;10252664;28;20076;-64
2024/01/31 17:23:20;;;;;;;35.28;27.10;;;;;;;;;;10254199;28;20069;-63
2024/01/31 17:28:18;;;;;;;33.53;25.98;;;;;;;;;;10255018;28;20068;-63
2024/01/31 17:33:16;;;;;;;28.30;24.35;;;;;;;;;;10255227;28;20076;-62
2024/01/31 17:38:15;;;;;;;28.52;22.35;;;;;;;;;;10259141;28;20080;-64
2024/01/31 17:43:16;;;;;;;24.60;19.30;;;;;;;;;;10258944;28;20091;-63
2024/01/31 17:48:17;;;;;;;28.90;20.10;;;;;;;;;;10260825;28;20077;-64
2024/01/31 17:53:16;;;;;;;60.05;40.85;;;;;;;;;;10257235;28;20452;-63
2024/01/31 17:58:15;;;;;;;43.83;28.40;;;;;;;;;;10258360;28;20485;-62
2024/01/31 18:03:15;;;;;;;36.97;27.10;;;;;;;;;;10257141;28;20065;-63
2024/01/31 18:08:16;;;;;;;21.30;16.88;;;;;;;;;;10253709;28;20084;-63
2024/01/31 18:13:31;;;;;;;18.33;15.75;;;;;;;;;;10268022;28;20487;-63
2024/01/31 18:18:32;;;;;;;25.80;21.77;;;;;;;;;;10266387;28;20072;-64
2024/01/31 18:23:31;;;;;;;34.03;27.50;;;;;;;;;;10271338;28;20076;-63
2024/01/31 18:28:31;;;;;;;29.67;24.10;;;;;;;;;;10258213;28;20073;-63
2024/01/31 18:33:29;;;;;;;31.20;25.30;;;;;;;;;;10258138;28;20517;-63
2024/01/31 18:38:29;;;;;;;25.58;20.70;;;;;;;;;;10258901;28;20180;-63
2024/01/31 18:43:27;;;;;;;26.73;22.25;;;;;;;;;;10255151;28;20088;-63
2024/01/31 18:48:26;;;;;;;50.03;36.67;;;;;;;;;;10248817;28;20079;-62
2024/01/31 18:53:25;;;;;;;38.65;29.30;;;;;;;;;;10249946;28;20499;-62
2024/01/31 18:58:25;;;;;;;31.77;26.13;;;;;;;;;;10254089;28;20061;-63
2024/01/31 19:03:23;;;;;;;26.83;20.90;;;;;;;;;;10254175;28;20094;-63
2024/01/31 19:08:23;;;;;;;27.25;20.92;;;;;;;;;;10253821;28;20069;-63
2024/01/31 19:13:21;;;;;;;23.48;17.15;;;;;;;;;;10253533;28;20513;-63
2024/01/31 19:18:20;;;;;;;16.35;13.57;;;;;;;;;;10253456;28;20076;-64
2024/01/31 19:23:18;;;;;;;17.92;13.60;;;;;;;;;;10252243;28;20068;-64
2024/01/31 19:28:20;;;;;;;17.25;12.70;;;;;;;;;;10257952;28;20088;-63
2024/01/31 19:33:18;;;;;;;16.25;13.23;;;;;;;;;;10253476;28;20077;-64
2024/01/31 19:38:21;;;;;;;16.63;13.57;;;;;;;;;;10252566;28;20095;-64
2024/01/31 19:43:21;;;;;;;13.00;11.63;;;;;;;;;;10251697;28;20104;-63
2024/01/31 19:48:19;;;;;;;13.65;11.88;;;;;;;;;;10255605;28;20450;-63
2024/01/31 19:53:18;;;;;;;25.85;22.52;;;;;;;;;;10256454;28;20088;-63
2024/01/31 19:58:16;;;;;;;34.95;27.13;;;;;;;;;;10252407;28;20068;-63
2024/01/31 20:03:15;;;;;;;62.90;39.33;;;;;;;;;;10250976;28;20065;-64
2024/01/31 20:08:14;;;;;;;61.60;38.60;;;;;;;;;;10247189;28;20506;-64
2024/01/31 20:13:12;;;;;;;75.85;46.58;;;;;;;;;;10249378;28;20068;-63
2024/01/31 20:18:10;;;;;;;121.47;72.53;;;;;;;;;;10249717;28;20459;-63
2024/01/31 20:23:10;;;;;;;131.40;76.55;;;;;;;;;;10253023;28;20080;-63
2024/01/31 20:28:09;;;;;;;183.43;102.75;;;;;;;;;;10252409;28;20073;-64
2024/01/31 20:33:07;;;;;;;204.13;102.75;;;;;;;;;;10258800;28;20077;-64
2024/01/31 20:38:05;;;;;;;322.45;160.13;;;;;;;;;;10259012;28;20115;-62
2024/01/31 20:43:05;;;;;;;236.75;123.43;;;;;;;;;;10259422;28;20285;-63
2024/01/31 20:48:04;;;;;;;291.30;141.43;;;;;;;;;;10260116;28;20088;-62
2024/01/31 20:53:02;;;;;;;250.13;125.40;;;;;;;;;;10253496;28;20073;-61
2024/01/31 20:58:01;;;;;;;258.25;128.93;;;;;;;;;;10258112;28;20073;-62
2024/01/31 21:03:00;;;;;;;223.70;115.18;;;;;;;;;;10260375;28;20068;-62
2024/01/31 21:07:58;;;;;;;125.38;71.93;;;;;;;;;;10263720;28;20486;-62
2024/01/31 21:12:57;;;;;;;101.43;64.07;;;;;;;;;;10257164;28;20345;-63
2024/01/31 21:17:55;;;;;;;63.10;43.42;;;;;;;;;;10253846;28;20077;-63
2024/01/31 21:22:55;;;;;;;59.83;39.63;;;;;;;;;;10258998;28;20525;-62
2024/01/31 21:27:53;;;;;;;95.15;51.88;;;;;;;;;;10263503;28;20076;-62
2024/01/31 21:32:53;;;;;;;91.35;52.35;;;;;;;;;;10257888;28;20076;-62
2024/01/31 21:37:51;;;;;;;87.32;49.20;;;;;;;;;;10258256;28;20061;-62
2024/01/31 21:42:51;;;;;;;63.00;36.90;;;;;;;;;;10257366;28;20087;-61
2024/01/31 21:47:49;;;;;;;69.72;39.10;;;;;;;;;;10255583;28;20087;-62
2024/01/31 21:52:47;;;;;;;54.78;33.13;;;;;;;;;;10255785;28;20068;-63
2024/01/31 21:57:46;;;;;;;78.45;45.50;;;;;;;;;;10254095;28;20080;-61
2024/01/31 22:02:45;;;;;;;75.20;44.08;;;;;;;;;;10254544;28;20141;-61
2024/01/31 22:07:43;;;;;;;91.60;48.53;;;;;;;;;;10248136;28;20526;-61
2024/01/31 22:12:42;;;;;;;63.53;37.67;;;;;;;;;;10249622;28;20072;-62
2024/01/31 22:17:40;;;;;;;53.90;28.88;;;;;;;;;;10249927;28;20073;-62
2024/01/31 22:22:40;;;;;;;71.03;40.67;;;;;;;;;;10250862;28;20084;-60
2024/01/31 22:27:38;;;;;;;51.08;30.40;;;;;;;;;;10250133;28;20083;-61
2024/01/31 22:32:37;;;;;;;42.05;26.38;;;;;;;;;;10250716;28;20084;-62
2024/01/31 22:37:35;;;;;;;42.38;27.38;;;;;;;;;;10253026;28;20545;-62
2024/01/31 22:42:35;;;;;;;55.78;34.67;;;;;;;;;;10253680;28;20079;-62
2024/01/31 22:47:33;;;;;;;53.33;33.47;;;;;;;;;;10252374;28;20628;-62
2024/01/31 22:52:32;;;;;;;57.85;31.27;;;;;;;;;;10253096;28;20076;-62
2024/01/31 22:57:30;;;;;;;72.30;40.20;;;;;;;;;;10253919;28;20080;-62
2024/01/31 23:02:29;;;;;;;74.28;39.42;;;;;;;;;;10248477;28;20084;-61
2024/01/31 23:07:28;;;;;;;58.95;35.30;;;;;;;;;;10251809;28;20092;-61
2024/01/31 23:12:26;;;;;;;58.45;31.65;;;;;;;;;;10243901;28;20080;-62
2024/01/31 23:17:24;;;;;;;105.78;45.80;;;;;;;;;;10251313;28;20507;-61
2024/01/31 23:22:24;;;;;;;109.22;46.15;;;;;;;;;;10251858;28;20087;-61
2024/01/31 23:27:24;;;;;;;42.88;26.38;;;;;;;;;;10251952;28;20076;-62
2024/01/31 23:32:23;;;;;;;22.52;17.48;;;;;;;;;;10252661;28;20659;-61
2024/01/31 23:37:21;;;;;;;16.55;13.32;;;;;;;;;;10250443;28;20076;-62
2024/01/31 23:42:21;;;;;;;13.07;11.63;;;;;;;;;;10251531;28;20073;-62
2024/01/31 23:47:19;;;;;;;16.83;14.02;;;;;;;;;;10252914;28;20088;-63
2024/01/31 23:52:18;;;;;;;14.68;13.07;;;;;;;;;;10251408;28;20083;-61
2024/01/31 23:57:16;;;;;;;15.30;13.07;;;;;;;;;;10249601;28;20080;-62
